Location:  
MeteoStar



Forecast For: Aguadilla, Puerto Rico
Cloudy
 
Currently:5 miles away at Aquadilla / Borinquen 13:50 GMT
Weather:Cloudy Humidity:94%
Temperature:72 ° F Wind:ENE 6 mph
Dew Point:70 ° F Pressure:30.13 in
Feels Like:72 ° F Visibility:4 miles
Print Legend
24 Hour Weather Trace
Regional Observations
Google Maps
Daily Climate Plot
Monthly Climate Plot
Misc Climate Facts
Regional Radar Image
National Radar Image
Regional Satellite Image
National Satellite Image
Short Range Forecast Trace
Long Range Forecast Trace
NWS Forecast Discussion 413198.4 hrs old
16 Day Forecast 2.7 hrs old
Radar Sites
Sunrise:6:53 AM Sunset:6:31 PM
San Juan, PR : 02/19/2017 14:19 GMT
CLICK FOR LOOP


Aviation Observations/Forecasts

METAR: TJBQ 191350Z 06005KT 4SM SCT007 SCT014 OVC048 22/21 A3013 =
TAF:
TAFJBQ
TAF
TJBQ 191120Z 1912/2012 07004KT P6SM VCSH BKN024 OVC045
FM191300 08010KT P6SM SCT030
FM191630 06013KT P6SM VCSH SCT025 BKN050
FM192300 11005KT P6SM SCT025 BKN100 =


National Weather Service Zone Forecast
For: Northwest (PRZ008)

Untitled Document

844 AM AST DOMINGO 19 DE FEBRERO DE 2017

Ahora... una linea de aguaceros de moderados a fuertes continuara afectando estos sectores de puerto rico, incluyendo el viejo san juan y areas adyacentes hasta por lo menos 12 pm. Periodos de lluvia causaran acumulacion de agua en las carreteras y en areas bajas.

$$
GFS Forecast for TJBQ
Time zone:

Atlantic
Tropical Watch